sensor_id;sensor_type;location;lat;lon;timestamp;pressure;altitude;pressure_sealevel;temperature;humidity
69848;BME280;57143;55.940;37.496;2023-09-07T00:01:33;99990.50;;;9.83;100.00
69848;BME280;57143;55.940;37.496;2023-09-07T00:04:01;99986.53;;;9.79;100.00
69848;BME280;57143;55.940;37.496;2023-09-07T00:06:29;99991.94;;;9.79;100.00
69848;BME280;57143;55.940;37.496;2023-09-07T00:08:57;99976.34;;;9.68;100.00
69848;BME280;57143;55.940;37.496;2023-09-07T00:11:24;99993.63;;;9.73;100.00
69848;BME280;57143;55.940;37.496;2023-09-07T00:13:51;99980.69;;;9.69;100.00
69848;BME280;57143;55.940;37.496;2023-09-07T00:16:19;99985.47;;;9.67;100.00
69848;BME280;57143;55.940;37.496;2023-09-07T00:18:46;99985.25;;;9.68;100.00
69848;BME280;57143;55.940;37.496;2023-09-07T00:21:14;99972.16;;;9.65;100.00
69848;BME280;57143;55.940;37.496;2023-09-07T00:23:41;99976.94;;;9.63;100.00
69848;BME280;57143;55.940;37.496;2023-09-07T00:26:09;99977.78;;;9.64;100.00
69848;BME280;57143;55.940;37.496;2023-09-07T00:28:38;99981.53;;;9.63;100.00
69848;BME280;57143;55.940;37.496;2023-09-07T00:31:05;99952.94;;;9.41;100.00
69848;BME280;57143;55.940;37.496;2023-09-07T00:33:32;99976.06;;;9.56;100.00
69848;BME280;57143;55.940;37.496;2023-09-07T00:36:01;99957.97;;;9.44;100.00
69848;BME280;57143;55.940;37.496;2023-09-07T00:38:29;99967.75;;;9.51;100.00
69848;BME280;57143;55.940;37.496;2023-09-07T00:40:56;99965.25;;;9.50;100.00
69848;BME280;57143;55.940;37.496;2023-09-07T00:43:25;99970.66;;;9.50;100.00
69848;BME280;57143;55.940;37.496;2023-09-07T00:45:52;99975.22;;;9.49;100.00
69848;BME280;57143;55.940;37.496;2023-09-07T00:48:19;99977.31;;;9.47;100.00
69848;BME280;57143;55.940;37.496;2023-09-07T00:50:47;99967.50;;;9.40;100.00
69848;BME280;57143;55.940;37.496;2023-09-07T00:53:15;99977.53;;;9.46;100.00
69848;BME280;57143;55.940;37.496;2023-09-07T00:55:42;99960.41;;;9.32;100.00
69848;BME280;57143;55.940;37.496;2023-09-07T00:58:09;99979.16;;;9.40;100.00
69848;BME280;57143;55.940;37.496;2023-09-07T01:00:39;99975.63;;;9.40;100.00
69848;BME280;57143;55.940;37.496;2023-09-07T01:03:08;99968.34;;;9.40;100.00
69848;BME280;57143;55.940;37.496;2023-09-07T01:05:43;99970.00;;;9.34;100.00
69848;BME280;57143;55.940;37.496;2023-09-07T01:08:17;99970.19;;;9.33;100.00
69848;BME280;57143;55.940;37.496;2023-09-07T01:10:46;99970.59;;;9.30;100.00
69848;BME280;57143;55.940;37.496;2023-09-07T01:13:13;99955.59;;;9.27;100.00
69848;BME280;57143;55.940;37.496;2023-09-07T01:15:42;99949.56;;;9.25;100.00
69848;BME280;57143;55.940;37.496;2023-09-07T01:18:09;99956.25;;;9.29;100.00
69848;BME280;57143;55.940;37.496;2023-09-07T01:20:40;99958.94;;;9.29;100.00
69848;BME280;57143;55.940;37.496;2023-09-07T01:23:09;99953.31;;;9.24;100.00
69848;BME280;57143;55.940;37.496;2023-09-07T01:25:38;99948.72;;;9.25;100.00
69848;BME280;57143;55.940;37.496;2023-09-07T01:28:06;99944.34;;;9.17;100.00
69848;BME280;57143;55.940;37.496;2023-09-07T01:30:35;99948.91;;;9.17;100.00
69848;BME280;57143;55.940;37.496;2023-09-07T01:33:04;99947.88;;;9.18;100.00
69848;BME280;57143;55.940;37.496;2023-09-07T01:35:32;99915.34;;;8.98;100.00
69848;BME280;57143;55.940;37.496;2023-09-07T01:38:00;99955.59;;;9.21;100.00
69848;BME280;57143;55.940;37.496;2023-09-07T01:40:29;99960.16;;;9.20;100.00
69848;BME280;57143;55.940;37.496;2023-09-07T01:42:56;99953.53;;;9.23;100.00
69848;BME280;57143;55.940;37.496;2023-09-07T01:45:23;99953.56;;;9.36;100.00
69848;BME280;57143;55.940;37.496;2023-09-07T01:47:50;99955.81;;;9.32;100.00
69848;BME280;57143;55.940;37.496;2023-09-07T01:50:18;99950.03;;;9.42;100.00
69848;BME280;57143;55.940;37.496;2023-09-07T01:52:46;99953.56;;;9.49;100.00
69848;BME280;57143;55.940;37.496;2023-09-07T01:55:15;99957.13;;;9.50;100.00
69848;BME280;57143;55.940;37.496;2023-09-07T01:57:43;99957.34;;;9.55;100.00
69848;BME280;57143;55.940;37.496;2023-09-07T02:00:12;99959.66;;;9.58;100.00
69848;BME280;57143;55.940;37.496;2023-09-07T02:02:39;99953.41;;;9.57;100.00
69848;BME280;57143;55.940;37.496;2023-09-07T02:05:07;99957.56;;;9.60;100.00
69848;BME280;57143;55.940;37.496;2023-09-07T02:07:35;99940.91;;;9.50;100.00
69848;BME280;57143;55.940;37.496;2023-09-07T02:10:02;99942.16;;;9.54;100.00
69848;BME280;57143;55.940;37.496;2023-09-07T02:12:30;99922.72;;;9.30;100.00
69848;BME280;57143;55.940;37.496;2023-09-07T02:15:01;99938.81;;;9.39;100.00
69848;BME280;57143;55.940;37.496;2023-09-07T02:17:32;99962.53;;;9.50;100.00
69848;BME280;57143;55.940;37.496;2023-09-07T02:20:00;99944.81;;;9.41;100.00
69848;BME280;57143;55.940;37.496;2023-09-07T02:22:33;99956.53;;;9.54;100.00
69848;BME280;57143;55.940;37.496;2023-09-07T02:25:00;99954.41;;;9.43;100.00
69848;BME280;57143;55.940;37.496;2023-09-07T02:27:29;99957.97;;;9.44;100.00
69848;BME280;57143;55.940;37.496;2023-09-07T02:29:57;99960.22;;;9.40;100.00
69848;BME280;57143;55.940;37.496;2023-09-07T02:32:25;99977.09;;;9.42;100.00
69848;BME280;57143;55.940;37.496;2023-09-07T02:34:52;99963.09;;;9.32;100.00
69848;BME280;57143;55.940;37.496;2023-09-07T02:37:20;99970.41;;;9.38;100.00
69848;BME280;57143;55.940;37.496;2023-09-07T02:39:47;99974.13;;;9.30;100.00
69848;BME280;57143;55.940;37.496;2023-09-07T02:42:14;99984.97;;;9.37;100.00
69848;BME280;57143;55.940;37.496;2023-09-07T02:44:41;99978.94;;;9.35;100.00
69848;BME280;57143;55.940;37.496;2023-09-07T02:47:08;99984.56;;;9.33;100.00
69848;BME280;57143;55.940;37.496;2023-09-07T02:49:37;99985.81;;;9.38;100.00
69848;BME280;57143;55.940;37.496;2023-09-07T02:52:05;99979.81;;;9.49;100.00
69848;BME280;57143;55.940;37.496;2023-09-07T02:54:33;99982.69;;;9.41;100.00
69848;BME280;57143;55.940;37.496;2023-09-07T02:57:00;99986.84;;;9.37;100.00
69848;BME280;57143;55.940;37.496;2023-09-07T02:59:28;99977.69;;;9.31;100.00
69848;BME280;57143;55.940;37.496;2023-09-07T03:01:55;99995.41;;;9.40;100.00
69848;BME280;57143;55.940;37.496;2023-09-07T03:04:22;99994.56;;;9.40;100.00
69848;BME280;57143;55.940;37.496;2023-09-07T03:06:50;100007.28;;;9.46;100.00
69848;BME280;57143;55.940;37.496;2023-09-07T03:09:18;100006.44;;;9.45;100.00
69848;BME280;57143;55.940;37.496;2023-09-07T03:11:45;99999.75;;;9.41;100.00
69848;BME280;57143;55.940;37.496;2023-09-07T03:14:12;100012.28;;;9.49;100.00
69848;BME280;57143;55.940;37.496;2023-09-07T03:16:39;100024.50;;;9.98;100.00
69848;BME280;57143;55.940;37.496;2023-09-07T03:19:06;100046.44;;;10.56;100.00
69848;BME280;57143;55.940;37.496;2023-09-07T03:21:33;100048.66;;;11.17;100.00
69848;BME280;57143;55.940;37.496;2023-09-07T03:24:02;100062.03;;;11.76;100.00
69848;BME280;57143;55.940;37.496;2023-09-07T03:26:29;100069.78;;;12.10;100.00
69848;BME280;57143;55.940;37.496;2023-09-07T03:28:56;100086.59;;;12.56;100.00
69848;BME280;57143;55.940;37.496;2023-09-07T03:31:24;100091.28;;;12.99;100.00
69848;BME280;57143;55.940;37.496;2023-09-07T03:33:51;100104.88;;;13.23;100.00
69848;BME280;57143;55.940;37.496;2023-09-07T03:36:18;100121.41;;;13.64;100.00
69848;BME280;57143;55.940;37.496;2023-09-07T03:38:46;100135.09;;;13.94;100.00
69848;BME280;57143;55.940;37.496;2023-09-07T03:41:14;100158.09;;;14.16;100.00
69848;BME280;57143;55.940;37.496;2023-09-07T03:43:41;100168.66;;;14.72;100.00
69848;BME280;57143;55.940;37.496;2023-09-07T03:46:09;100187.50;;;15.26;100.00
69848;BME280;57143;55.940;37.496;2023-09-07T03:48:36;100194.00;;;15.55;100.00
69848;BME280;57143;55.940;37.496;2023-09-07T03:51:05;100221.53;;;15.99;100.00
69848;BME280;57143;55.940;37.496;2023-09-07T03:53:32;100247.38;;;16.32;100.00
69848;BME280;57143;55.940;37.496;2023-09-07T03:56:02;100242.38;;;16.40;100.00
69848;BME280;57143;55.940;37.496;2023-09-07T03:58:32;100283.69;;;16.78;100.00
69848;BME280;57143;55.940;37.496;2023-09-07T04:01:00;100290.56;;;16.92;100.00
69848;BME280;57143;55.940;37.496;2023-09-07T04:03:27;100280.91;;;17.18;100.00
69848;BME280;57143;55.940;37.496;2023-09-07T04:05:54;100279.66;;;16.69;100.00
69848;BME280;57143;55.940;37.496;2023-09-07T04:08:21;100301.22;;;16.77;100.00
69848;BME280;57143;55.940;37.496;2023-09-07T04:10:48;100292.69;;;16.90;100.00
69848;BME280;57143;55.940;37.496;2023-09-07T04:13:16;100302.66;;;16.96;100.00
69848;BME280;57143;55.940;37.496;2023-09-07T04:15:45;100315.13;;;17.04;100.00
69848;BME280;57143;55.940;37.496;2023-09-07T04:18:12;100317.38;;;17.35;100.00
69848;BME280;57143;55.940;37.496;2023-09-07T04:20:41;100339.22;;;17.75;100.00
69848;BME280;57143;55.940;37.496;2023-09-07T04:23:08;100343.56;;;17.43;100.00
69848;BME280;57143;55.940;37.496;2023-09-07T04:25:36;100340.69;;;17.49;100.00
69848;BME280;57143;55.940;37.496;2023-09-07T04:28:04;100359.41;;;18.18;100.00
69848;BME280;57143;55.940;37.496;2023-09-07T04:30:32;100340.81;;;17.87;100.00
69848;BME280;57143;55.940;37.496;2023-09-07T04:33:00;100369.47;;;17.80;100.00
69848;BME280;57143;55.940;37.496;2023-09-07T04:35:28;100366.75;;;17.96;100.00
69848;BME280;57143;55.940;37.496;2023-09-07T04:37:56;100374.44;;;16.70;100.00
69848;BME280;57143;55.940;37.496;2023-09-07T04:40:24;100353.53;;;16.81;100.00
69848;BME280;57143;55.940;37.496;2023-09-07T04:42:51;100364.50;;;16.92;100.00
69848;BME280;57143;55.940;37.496;2023-09-07T04:45:19;100347.66;;;16.26;100.00
69848;BME280;57143;55.940;37.496;2023-09-07T04:47:46;100338.84;;;16.24;100.00
69848;BME280;57143;55.940;37.496;2023-09-07T04:50:15;100332.44;;;15.95;100.00
69848;BME280;57143;55.940;37.496;2023-09-07T04:52:42;100334.78;;;16.38;100.00
69848;BME280;57143;55.940;37.496;2023-09-07T04:55:10;100344.06;;;17.00;100.00
69848;BME280;57143;55.940;37.496;2023-09-07T04:57:37;100358.94;;;16.41;100.00
69848;BME280;57143;55.940;37.496;2023-09-07T05:00:06;100355.63;;;16.39;100.00
69848;BME280;57143;55.940;37.496;2023-09-07T05:02:34;100347.56;;;15.57;100.00
69848;BME280;57143;55.940;37.496;2023-09-07T05:05:06;100326.94;;;14.54;100.00
69848;BME280;57143;55.940;37.496;2023-09-07T05:07:35;100316.81;;;14.90;100.00
69848;BME280;57143;55.940;37.496;2023-09-07T05:10:02;100309.19;;;14.63;100.00
69848;BME280;57143;55.940;37.496;2023-09-07T05:12:30;100283.28;;;14.54;100.00
69848;BME280;57143;55.940;37.496;2023-09-07T05:14:57;100289.69;;;14.77;100.00
69848;BME280;57143;55.940;37.496;2023-09-07T05:17:25;100299.41;;;15.03;100.00
69848;BME280;57143;55.940;37.496;2023-09-07T05:19:52;100316.97;;;14.77;100.00
69848;BME280;57143;55.940;37.496;2023-09-07T05:22:19;100313.88;;;15.03;100.00
69848;BME280;57143;55.940;37.496;2023-09-07T05:24:49;100314.66;;;15.52;100.00
69848;BME280;57143;55.940;37.496;2023-09-07T05:27:16;100314.53;;;15.17;100.00
69848;BME280;57143;55.940;37.496;2023-09-07T05:29:43;100312.41;;;15.49;100.00
69848;BME280;57143;55.940;37.496;2023-09-07T05:32:10;100333.50;;;16.52;100.00
69848;BME280;57143;55.940;37.496;2023-09-07T05:34:38;100307.09;;;15.88;100.00
69848;BME280;57143;55.940;37.496;2023-09-07T05:37:05;100348.81;;;16.42;100.00
69848;BME280;57143;55.940;37.496;2023-09-07T05:39:32;100335.16;;;16.53;100.00
69848;BME280;57143;55.940;37.496;2023-09-07T05:42:01;100335.66;;;15.92;100.00
69848;BME280;57143;55.940;37.496;2023-09-07T05:44:28;100328.06;;;15.12;100.00
69848;BME280;57143;55.940;37.496;2023-09-07T05:46:55;100310.84;;;15.12;100.00
69848;BME280;57143;55.940;37.496;2023-09-07T05:49:24;100305.03;;;15.08;100.00
69848;BME280;57143;55.940;37.496;2023-09-07T05:51:51;100333.06;;;15.15;100.00
69848;BME280;57143;55.940;37.496;2023-09-07T05:54:18;100328.16;;;16.11;100.00
69848;BME280;57143;55.940;37.496;2023-09-07T05:56:45;100344.91;;;16.26;100.00
69848;BME280;57143;55.940;37.496;2023-09-07T05:59:14;100366.84;;;17.00;100.00
69848;BME280;57143;55.940;37.496;2023-09-07T06:01:41;100378.09;;;17.15;100.00
69848;BME280;57143;55.940;37.496;2023-09-07T06:04:08;100372.22;;;16.95;100.00
69848;BME280;57143;55.940;37.496;2023-09-07T06:06:36;100382.00;;;16.80;100.00
69848;BME280;57143;55.940;37.496;2023-09-07T06:09:03;100392.78;;;16.58;100.00
69848;BME280;57143;55.940;37.496;2023-09-07T06:11:31;100376.81;;;16.67;100.00
69848;BME280;57143;55.940;37.496;2023-09-07T06:13:58;100384.41;;;17.16;100.00
69848;BME280;57143;55.940;37.496;2023-09-07T06:16:27;100395.84;;;16.50;100.00
69848;BME280;57143;55.940;37.496;2023-09-07T06:18:54;100388.34;;;16.57;100.00
69848;BME280;57143;55.940;37.496;2023-09-07T06:21:21;100376.53;;;15.99;100.00
69848;BME280;57143;55.940;37.496;2023-09-07T06:23:49;100394.13;;;16.95;100.00
69848;BME280;57143;55.940;37.496;2023-09-07T06:26:16;100386.09;;;17.17;100.00
69848;BME280;57143;55.940;37.496;2023-09-07T06:28:45;100416.53;;;17.20;100.00
69848;BME280;57143;55.940;37.496;2023-09-07T06:31:12;100417.97;;;17.63;100.00
69848;BME280;57143;55.940;37.496;2023-09-07T06:33:40;100439.22;;;17.56;100.00
69848;BME280;57143;55.940;37.496;2023-09-07T06:36:08;100436.97;;;18.14;100.00
69848;BME280;57143;55.940;37.496;2023-09-07T06:38:35;100452.19;;;18.38;100.00
69848;BME280;57143;55.940;37.496;2023-09-07T06:41:02;100458.59;;;17.94;100.00
69848;BME280;57143;55.940;37.496;2023-09-07T06:43:30;100457.28;;;18.13;100.00
69848;BME280;57143;55.940;37.496;2023-09-07T06:46:02;100463.09;;;18.00;100.00
69848;BME280;57143;55.940;37.496;2023-09-07T06:48:30;100459.00;;;18.02;100.00
69848;BME280;57143;55.940;37.496;2023-09-07T06:51:02;100464.28;;;18.54;100.00
69848;BME280;57143;55.940;37.496;2023-09-07T06:53:30;100486.19;;;18.65;100.00
69848;BME280;57143;55.940;37.496;2023-09-07T06:55:58;100483.56;;;18.92;100.00
69848;BME280;57143;55.940;37.496;2023-09-07T06:58:25;100509.03;;;18.37;100.00
69848;BME280;57143;55.940;37.496;2023-09-07T07:00:52;100507.22;;;18.60;100.00
69848;BME280;57143;55.940;37.496;2023-09-07T07:03:19;100514.97;;;19.34;100.00
69848;BME280;57143;55.940;37.496;2023-09-07T07:05:46;100535.78;;;18.75;100.00
69848;BME280;57143;55.940;37.496;2023-09-07T07:08:15;100538.75;;;18.57;100.00
69848;BME280;57143;55.940;37.496;2023-09-07T07:10:42;100515.59;;;18.36;100.00
69848;BME280;57143;55.940;37.496;2023-09-07T07:13:09;100513.59;;;18.32;100.00
69848;BME280;57143;55.940;37.496;2023-09-07T07:15:37;100541.16;;;18.87;100.00
69848;BME280;57143;55.940;37.496;2023-09-07T07:18:04;100534.69;;;18.93;100.00
69848;BME280;57143;55.940;37.496;2023-09-07T07:20:34;100534.53;;;18.66;100.00
69848;BME280;57143;55.940;37.496;2023-09-07T07:23:01;100532.44;;;18.40;100.00
69848;BME280;57143;55.940;37.496;2023-09-07T07:25:29;100549.34;;;18.65;100.00
69848;BME280;57143;55.940;37.496;2023-09-07T07:27:59;100560.59;;;19.35;100.00
69848;BME280;57143;55.940;37.496;2023-09-07T07:30:27;100553.03;;;19.25;100.00
69848;BME280;57143;55.940;37.496;2023-09-07T07:32:57;100550.31;;;18.92;100.00
69848;BME280;57143;55.940;37.496;2023-09-07T07:35:25;100559.56;;;18.53;100.00
69848;BME280;57143;55.940;37.496;2023-09-07T07:37:52;100550.38;;;17.75;100.00
69848;BME280;57143;55.940;37.496;2023-09-07T07:40:19;100552.31;;;18.19;100.00
69848;BME280;57143;55.940;37.496;2023-09-07T07:42:48;100553.53;;;18.39;100.00
69848;BME280;57143;55.940;37.496;2023-09-07T07:45:15;100550.91;;;18.78;100.00
69848;BME280;57143;55.940;37.496;2023-09-07T07:47:46;100549.63;;;18.35;100.00
69848;BME280;57143;55.940;37.496;2023-09-07T07:50:13;100565.44;;;18.45;100.00
69848;BME280;57143;55.940;37.496;2023-09-07T07:52:40;100558.31;;;18.44;100.00
69848;BME280;57143;55.940;37.496;2023-09-07T07:55:08;100555.56;;;18.16;100.00
69848;BME280;57143;55.940;37.496;2023-09-07T07:57:35;100539.84;;;18.11;100.00
69848;BME280;57143;55.940;37.496;2023-09-07T08:00:05;100575.22;;;17.96;100.00
69848;BME280;57143;55.940;37.496;2023-09-07T08:02:33;100573.97;;;18.32;100.00
69848;BME280;57143;55.940;37.496;2023-09-07T08:05:00;100561.41;;;18.81;100.00
69848;BME280;57143;55.940;37.496;2023-09-07T08:07:29;100567.41;;;18.33;100.00
69848;BME280;57143;55.940;37.496;2023-09-07T08:09:56;100579.03;;;18.23;100.00
69848;BME280;57143;55.940;37.496;2023-09-07T08:12:23;100568.94;;;17.84;100.00
69848;BME280;57143;55.940;37.496;2023-09-07T08:14:51;100580.81;;;18.01;100.00
69848;BME280;57143;55.940;37.496;2023-09-07T08:17:19;100563.13;;;18.54;100.00
69848;BME280;57143;55.940;37.496;2023-09-07T08:19:47;100593.59;;;19.02;100.00
69848;BME280;57143;55.940;37.496;2023-09-07T08:22:17;100592.28;;;17.87;100.00
69848;BME280;57143;55.940;37.496;2023-09-07T08:24:44;100571.50;;;18.02;100.00
69848;BME280;57143;55.940;37.496;2023-09-07T08:27:12;100592.50;;;17.97;100.00
69848;BME280;57143;55.940;37.496;2023-09-07T08:29:44;100595.94;;;17.64;100.00
69848;BME280;57143;55.940;37.496;2023-09-07T08:32:14;100592.34;;;17.64;100.00
69848;BME280;57143;55.940;37.496;2023-09-07T08:34:42;100574.50;;;17.38;100.00
69848;BME280;57143;55.940;37.496;2023-09-07T08:37:09;100591.28;;;17.65;100.00
69848;BME280;57143;55.940;37.496;2023-09-07T08:39:37;100581.41;;;17.52;100.00
69848;BME280;57143;55.940;37.496;2023-09-07T08:42:05;100582.59;;;17.33;100.00
69848;BME280;57143;55.940;37.496;2023-09-07T08:44:33;100572.84;;;17.25;100.00
69848;BME280;57143;55.940;37.496;2023-09-07T08:47:02;100582.28;;;17.06;100.00
69848;BME280;57143;55.940;37.496;2023-09-07T08:49:30;100571.72;;;16.57;100.00
69848;BME280;57143;55.940;37.496;2023-09-07T08:52:01;100546.28;;;16.68;100.00
69848;BME280;57143;55.940;37.496;2023-09-07T08:54:30;100560.34;;;16.83;100.00
69848;BME280;57143;55.940;37.496;2023-09-07T08:56:58;100561.63;;;16.58;100.00
69848;BME280;57143;55.940;37.496;2023-09-07T08:59:26;100571.28;;;16.72;100.00
69848;BME280;57143;55.940;37.496;2023-09-07T09:01:56;100583.19;;;17.12;100.00
69848;BME280;57143;55.940;37.496;2023-09-07T09:04:24;100584.75;;;17.19;100.00
69848;BME280;57143;55.940;37.496;2023-09-07T09:06:53;100588.69;;;17.35;100.00
69848;BME280;57143;55.940;37.496;2023-09-07T09:09:25;100566.66;;;17.53;100.00
69848;BME280;57143;55.940;37.496;2023-09-07T09:11:53;100587.25;;;17.56;100.00
69848;BME280;57143;55.940;37.496;2023-09-07T09:14:20;100604.00;;;17.71;100.00
69848;BME280;57143;55.940;37.496;2023-09-07T09:16:48;100583.34;;;16.94;100.00
69848;BME280;57143;55.940;37.496;2023-09-07T09:19:17;100594.47;;;16.69;100.00
69848;BME280;57143;55.940;37.496;2023-09-07T09:21:45;100558.91;;;16.69;100.00
69848;BME280;57143;55.940;37.496;2023-09-07T09:24:12;100572.13;;;16.01;100.00
69848;BME280;57143;55.940;37.496;2023-09-07T09:26:42;100575.97;;;16.12;100.00
69848;BME280;57143;55.940;37.496;2023-09-07T09:29:09;100582.44;;;16.29;100.00
69848;BME280;57143;55.940;37.496;2023-09-07T09:31:37;100580.75;;;16.16;100.00
69848;BME280;57143;55.940;37.496;2023-09-07T09:34:04;100575.06;;;16.18;100.00
69848;BME280;57143;55.940;37.496;2023-09-07T09:36:35;100572.34;;;16.59;100.00
69848;BME280;57143;55.940;37.496;2023-09-07T09:39:03;100574.50;;;16.92;100.00
69848;BME280;57143;55.940;37.496;2023-09-07T09:41:32;100548.09;;;16.86;100.00
69848;BME280;57143;55.940;37.496;2023-09-07T09:44:02;100594.75;;;17.37;100.00
69848;BME280;57143;55.940;37.496;2023-09-07T09:46:32;100607.59;;;16.79;100.00
69848;BME280;57143;55.940;37.496;2023-09-07T09:48:59;100577.03;;;16.41;100.00
69848;BME280;57143;55.940;37.496;2023-09-07T09:51:30;100589.38;;;16.43;100.00
69848;BME280;57143;55.940;37.496;2023-09-07T09:53:59;100577.06;;;16.23;100.00
69848;BME280;57143;55.940;37.496;2023-09-07T09:56:27;100580.56;;;16.30;100.00
69848;BME280;57143;55.940;37.496;2023-09-07T09:58:55;100602.13;;;16.08;100.00
69848;BME280;57143;55.940;37.496;2023-09-07T10:01:24;100571.00;;;16.20;100.00
69848;BME280;57143;55.940;37.496;2023-09-07T10:03:52;100581.94;;;16.20;100.00
69848;BME280;57143;55.940;37.496;2023-09-07T10:06:23;100569.72;;;16.64;100.00
69848;BME280;57143;55.940;37.496;2023-09-07T10:08:59;100561.16;;;16.72;100.00
69848;BME280;57143;55.940;37.496;2023-09-07T10:11:27;100577.81;;;16.59;100.00
69848;BME280;57143;55.940;37.496;2023-09-07T10:14:00;100566.25;;;16.69;100.00
69848;BME280;57143;55.940;37.496;2023-09-07T10:16:40;100559.84;;;16.22;100.00
69848;BME280;57143;55.940;37.496;2023-09-07T10:19:14;100574.03;;;16.72;100.00
69848;BME280;57143;55.940;37.496;2023-09-07T10:21:42;100570.44;;;16.60;100.00
69848;BME280;57143;55.940;37.496;2023-09-07T10:24:09;100573.78;;;16.96;100.00
69848;BME280;57143;55.940;37.496;2023-09-07T10:26:37;100586.06;;;16.82;100.00
69848;BME280;57143;55.940;37.496;2023-09-07T10:29:04;100580.59;;;16.94;100.00
69848;BME280;57143;55.940;37.496;2023-09-07T10:31:33;100582.72;;;17.26;100.00
69848;BME280;57143;55.940;37.496;2023-09-07T10:34:10;100566.28;;;17.03;100.00
69848;BME280;57143;55.940;37.496;2023-09-07T10:36:37;100559.63;;;16.99;100.00
69848;BME280;57143;55.940;37.496;2023-09-07T10:39:05;100560.66;;;16.52;100.00
69848;BME280;57143;55.940;37.496;2023-09-07T10:41:41;100568.22;;;16.39;100.00
69848;BME280;57143;55.940;37.496;2023-09-07T10:44:09;100559.06;;;16.45;100.00
69848;BME280;57143;55.940;37.496;2023-09-07T10:46:39;100570.88;;;16.57;100.00
69848;BME280;57143;55.940;37.496;2023-09-07T10:49:08;100565.94;;;16.77;100.00
69848;BME280;57143;55.940;37.496;2023-09-07T10:51:44;100557.13;;;16.86;100.00
69848;BME280;57143;55.940;37.496;2023-09-07T10:54:16;100574.16;;;17.00;100.00
69848;BME280;57143;55.940;37.496;2023-09-07T10:56:44;100569.38;;;17.07;100.00
69848;BME280;57143;55.940;37.496;2023-09-07T10:59:13;100532.84;;;16.78;100.00
69848;BME280;57143;55.940;37.496;2023-09-07T11:01:43;100564.63;;;17.14;100.00
69848;BME280;57143;55.940;37.496;2023-09-07T11:04:10;100570.34;;;17.12;100.00
69848;BME280;57143;55.940;37.496;2023-09-07T11:06:40;100555.81;;;16.77;100.00
69848;BME280;57143;55.940;37.496;2023-09-07T11:09:08;100551.75;;;16.68;100.00
69848;BME280;57143;55.940;37.496;2023-09-07T11:11:36;100565.09;;;16.88;100.00
69848;BME280;57143;55.940;37.496;2023-09-07T11:14:04;100544.16;;;16.93;100.00
69848;BME280;57143;55.940;37.496;2023-09-07T11:16:33;100549.25;;;16.90;100.00
69848;BME280;57143;55.940;37.496;2023-09-07T11:19:04;100557.72;;;16.88;100.00
69848;BME280;57143;55.940;37.496;2023-09-07T11:21:31;100562.47;;;16.81;100.00
69848;BME280;57143;55.940;37.496;2023-09-07T11:24:00;100556.28;;;16.63;100.00
69848;BME280;57143;55.940;37.496;2023-09-07T11:26:40;100553.28;;;16.53;100.00
69848;BME280;57143;55.940;37.496;2023-09-07T11:29:08;100541.88;;;16.67;100.00
69848;BME280;57143;55.940;37.496;2023-09-07T11:31:35;100556.88;;;16.88;100.00
69848;BME280;57143;55.940;37.496;2023-09-07T11:34:08;100503.56;;;16.79;100.00
69848;BME280;57143;55.940;37.496;2023-09-07T11:36:36;100543.88;;;17.29;100.00
69848;BME280;57143;55.940;37.496;2023-09-07T11:39:04;100530.53;;;17.45;100.00
69848;BME280;57143;55.940;37.496;2023-09-07T11:41:38;100538.59;;;17.63;100.00
69848;BME280;57143;55.940;37.496;2023-09-07T11:44:07;100511.63;;;17.99;100.00
69848;BME280;57143;55.940;37.496;2023-09-07T11:46:34;100513.81;;;18.14;100.00
69848;BME280;57143;55.940;37.496;2023-09-07T11:49:01;100497.84;;;18.11;100.00
69848;BME280;57143;55.940;37.496;2023-09-07T11:51:32;100484.47;;;18.14;100.00
69848;BME280;57143;55.940;37.496;2023-09-07T11:54:01;100481.19;;;17.84;100.00
69848;BME280;57143;55.940;37.496;2023-09-07T11:56:28;100510.50;;;17.44;100.00
69848;BME280;57143;55.940;37.496;2023-09-07T11:58:55;100516.63;;;17.23;100.00
69848;BME280;57143;55.940;37.496;2023-09-07T12:01:23;100492.00;;;16.77;100.00
69848;BME280;57143;55.940;37.496;2023-09-07T12:03:50;100502.94;;;16.54;100.00
69848;BME280;57143;55.940;37.496;2023-09-07T12:06:17;100512.53;;;16.45;100.00
69848;BME280;57143;55.940;37.496;2023-09-07T12:08:59;100526.44;;;16.32;100.00
69848;BME280;57143;55.940;37.496;2023-09-07T12:11:27;100514.97;;;16.53;100.00
69848;BME280;57143;55.940;37.496;2023-09-07T12:13:54;100509.63;;;16.69;100.00
69848;BME280;57143;55.940;37.496;2023-09-07T12:16:21;100511.78;;;16.79;100.00
69848;BME280;57143;55.940;37.496;2023-09-07T12:18:49;100505.81;;;16.93;100.00
69848;BME280;57143;55.940;37.496;2023-09-07T12:21:16;100522.72;;;17.13;100.00
69848;BME280;57143;55.940;37.496;2023-09-07T12:23:43;100530.22;;;16.83;100.00
69848;BME280;57143;55.940;37.496;2023-09-07T12:26:12;100488.84;;;16.39;100.00
69848;BME280;57143;55.940;37.496;2023-09-07T12:28:40;100492.88;;;16.13;100.00
69848;BME280;57143;55.940;37.496;2023-09-07T12:31:07;100500.53;;;16.34;100.00
69848;BME280;57143;55.940;37.496;2023-09-07T12:33:34;100501.16;;;16.48;100.00
69848;BME280;57143;55.940;37.496;2023-09-07T12:36:03;100476.59;;;16.30;100.00
69848;BME280;57143;55.940;37.496;2023-09-07T12:38:34;100501.81;;;16.32;100.00
69848;BME280;57143;55.940;37.496;2023-09-07T12:41:02;100502.28;;;16.29;100.00